sensor_id;sensor_type;location;lat;lon;timestamp;P1;durP1;ratioP1;P2;durP2;ratioP2
53411;SDS011;39307;52.870;13.660;2023-06-26T00:01:58;8.52;;;6.47;;
53411;SDS011;39307;52.870;13.660;2023-06-26T00:04:24;10.07;;;6.38;;
53411;SDS011;39307;52.870;13.660;2023-06-26T00:06:50;11.35;;;6.95;;
53411;SDS011;39307;52.870;13.660;2023-06-26T00:09:17;10.50;;;7.10;;
53411;SDS011;39307;52.870;13.660;2023-06-26T00:11:43;12.80;;;7.70;;
53411;SDS011;39307;52.870;13.660;2023-06-26T00:14:09;8.50;;;6.55;;
53411;SDS011;39307;52.870;13.660;2023-06-26T00:16:35;11.40;;;7.25;;
53411;SDS011;39307;52.870;13.660;2023-06-26T00:19:02;10.05;;;7.40;;
53411;SDS011;39307;52.870;13.660;2023-06-26T00:21:28;9.77;;;7.25;;
53411;SDS011;39307;52.870;13.660;2023-06-26T00:23:54;10.95;;;7.53;;
53411;SDS011;39307;52.870;13.660;2023-06-26T00:26:20;9.82;;;7.60;;
53411;SDS011;39307;52.870;13.660;2023-06-26T00:28:47;10.48;;;7.75;;
53411;SDS011;39307;52.870;13.660;2023-06-26T00:31:13;10.65;;;7.35;;
53411;SDS011;39307;52.870;13.660;2023-06-26T00:33:40;10.18;;;8.20;;
53411;SDS011;39307;52.870;13.660;2023-06-26T00:36:06;11.20;;;8.00;;
53411;SDS011;39307;52.870;13.660;2023-06-26T00:38:32;12.18;;;8.13;;
53411;SDS011;39307;52.870;13.660;2023-06-26T00:40:58;10.90;;;7.60;;
53411;SDS011;39307;52.870;13.660;2023-06-26T00:43:24;9.73;;;7.45;;
53411;SDS011;39307;52.870;13.660;2023-06-26T00:45:51;10.30;;;7.60;;
53411;SDS011;39307;52.870;13.660;2023-06-26T00:48:17;13.00;;;8.38;;
53411;SDS011;39307;52.870;13.660;2023-06-26T00:50:44;12.13;;;8.10;;
53411;SDS011;39307;52.870;13.660;2023-06-26T00:53:10;11.05;;;8.73;;
53411;SDS011;39307;52.870;13.660;2023-06-26T00:55:37;10.98;;;8.10;;
53411;SDS011;39307;52.870;13.660;2023-06-26T00:58:03;12.80;;;8.60;;
53411;SDS011;39307;52.870;13.660;2023-06-26T01:00:30;12.43;;;9.17;;
53411;SDS011;39307;52.870;13.660;2023-06-26T01:02:56;12.15;;;8.93;;
53411;SDS011;39307;52.870;13.660;2023-06-26T01:05:22;14.05;;;9.07;;
53411;SDS011;39307;52.870;13.660;2023-06-26T01:07:49;12.47;;;9.17;;
53411;SDS011;39307;52.870;13.660;2023-06-26T01:10:16;10.63;;;8.45;;
53411;SDS011;39307;52.870;13.660;2023-06-26T01:12:42;10.68;;;8.57;;
53411;SDS011;39307;52.870;13.660;2023-06-26T01:15:09;11.90;;;8.25;;
53411;SDS011;39307;52.870;13.660;2023-06-26T01:17:37;11.55;;;8.68;;
53411;SDS011;39307;52.870;13.660;2023-06-26T01:20:05;10.23;;;8.33;;
53411;SDS011;39307;52.870;13.660;2023-06-26T01:25:26;10.77;;;8.85;;
53411;SDS011;39307;52.870;13.660;2023-06-26T01:27:56;10.77;;;8.30;;
53411;SDS011;39307;52.870;13.660;2023-06-26T01:30:22;13.25;;;9.13;;
53411;SDS011;39307;52.870;13.660;2023-06-26T01:32:50;11.77;;;8.68;;
53411;SDS011;39307;52.870;13.660;2023-06-26T01:35:16;10.80;;;8.73;;
53411;SDS011;39307;52.870;13.660;2023-06-26T01:37:43;13.07;;;8.70;;
53411;SDS011;39307;52.870;13.660;2023-06-26T01:40:09;12.30;;;8.45;;
53411;SDS011;39307;52.870;13.660;2023-06-26T01:42:35;12.00;;;8.82;;
53411;SDS011;39307;52.870;13.660;2023-06-26T01:45:22;13.07;;;9.73;;
53411;SDS011;39307;52.870;13.660;2023-06-26T01:47:53;13.23;;;10.02;;
53411;SDS011;39307;52.870;13.660;2023-06-26T01:50:24;11.65;;;9.38;;
53411;SDS011;39307;52.870;13.660;2023-06-26T01:53:13;13.55;;;9.18;;
53411;SDS011;39307;52.870;13.660;2023-06-26T01:55:46;11.70;;;9.43;;
53411;SDS011;39307;52.870;13.660;2023-06-26T01:58:17;12.95;;;9.85;;
53411;SDS011;39307;52.870;13.660;2023-06-26T02:00:48;12.27;;;9.60;;
53411;SDS011;39307;52.870;13.660;2023-06-26T02:03:14;12.73;;;10.50;;
53411;SDS011;39307;52.870;13.660;2023-06-26T02:05:40;13.13;;;10.10;;
53411;SDS011;39307;52.870;13.660;2023-06-26T02:08:08;12.95;;;10.13;;
53411;SDS011;39307;52.870;13.660;2023-06-26T02:10:34;12.73;;;9.82;;
53411;SDS011;39307;52.870;13.660;2023-06-26T02:13:00;10.93;;;9.30;;
53411;SDS011;39307;52.870;13.660;2023-06-26T02:15:27;12.07;;;9.52;;
53411;SDS011;39307;52.870;13.660;2023-06-26T02:17:53;13.70;;;10.00;;
53411;SDS011;39307;52.870;13.660;2023-06-26T02:20:19;11.45;;;9.45;;
53411;SDS011;39307;52.870;13.660;2023-06-26T02:22:45;11.95;;;9.60;;
53411;SDS011;39307;52.870;13.660;2023-06-26T02:25:11;10.32;;;8.85;;
53411;SDS011;39307;52.870;13.660;2023-06-26T02:27:38;16.08;;;10.02;;
53411;SDS011;39307;52.870;13.660;2023-06-26T02:30:04;12.20;;;9.52;;
53411;SDS011;39307;52.870;13.660;2023-06-26T02:32:31;14.88;;;10.00;;
53411;SDS011;39307;52.870;13.660;2023-06-26T02:34:57;13.10;;;9.85;;
53411;SDS011;39307;52.870;13.660;2023-06-26T02:37:23;12.83;;;9.40;;
53411;SDS011;39307;52.870;13.660;2023-06-26T02:39:50;11.48;;;9.57;;
53411;SDS011;39307;52.870;13.660;2023-06-26T02:42:16;12.13;;;9.77;;
53411;SDS011;39307;52.870;13.660;2023-06-26T02:44:42;11.85;;;9.07;;
53411;SDS011;39307;52.870;13.660;2023-06-26T02:47:09;12.15;;;9.77;;
53411;SDS011;39307;52.870;13.660;2023-06-26T02:49:35;13.07;;;9.70;;
53411;SDS011;39307;52.870;13.660;2023-06-26T02:52:01;12.07;;;9.20;;
53411;SDS011;39307;52.870;13.660;2023-06-26T02:54:27;12.35;;;10.05;;
53411;SDS011;39307;52.870;13.660;2023-06-26T02:56:53;11.52;;;9.05;;
53411;SDS011;39307;52.870;13.660;2023-06-26T02:59:20;13.30;;;9.70;;
53411;SDS011;39307;52.870;13.660;2023-06-26T03:01:46;11.75;;;9.57;;
53411;SDS011;39307;52.870;13.660;2023-06-26T03:04:12;11.97;;;9.33;;
53411;SDS011;39307;52.870;13.660;2023-06-26T03:06:38;13.35;;;9.40;;
53411;SDS011;39307;52.870;13.660;2023-06-26T03:09:04;16.50;;;9.93;;
53411;SDS011;39307;52.870;13.660;2023-06-26T03:11:30;12.52;;;8.98;;
53411;SDS011;39307;52.870;13.660;2023-06-26T03:13:57;12.40;;;9.23;;
53411;SDS011;39307;52.870;13.660;2023-06-26T03:16:23;10.45;;;8.52;;
53411;SDS011;39307;52.870;13.660;2023-06-26T03:18:49;12.32;;;9.18;;
53411;SDS011;39307;52.870;13.660;2023-06-26T03:21:15;12.93;;;9.40;;
53411;SDS011;39307;52.870;13.660;2023-06-26T03:23:42;14.77;;;9.45;;
53411;SDS011;39307;52.870;13.660;2023-06-26T03:26:08;13.57;;;9.88;;
53411;SDS011;39307;52.870;13.660;2023-06-26T03:28:35;11.57;;;9.32;;
53411;SDS011;39307;52.870;13.660;2023-06-26T03:31:01;11.90;;;9.50;;
53411;SDS011;39307;52.870;13.660;2023-06-26T03:33:27;11.15;;;9.20;;
53411;SDS011;39307;52.870;13.660;2023-06-26T03:35:53;12.57;;;9.52;;
53411;SDS011;39307;52.870;13.660;2023-06-26T03:38:19;13.03;;;9.57;;
53411;SDS011;39307;52.870;13.660;2023-06-26T03:40:46;11.57;;;9.60;;
53411;SDS011;39307;52.870;13.660;2023-06-26T03:43:13;15.07;;;9.88;;
53411;SDS011;39307;52.870;13.660;2023-06-26T03:45:39;13.05;;;10.18;;
53411;SDS011;39307;52.870;13.660;2023-06-26T03:48:05;12.07;;;9.25;;
53411;SDS011;39307;52.870;13.660;2023-06-26T03:50:31;12.85;;;9.45;;
53411;SDS011;39307;52.870;13.660;2023-06-26T03:52:57;13.32;;;9.38;;
53411;SDS011;39307;52.870;13.660;2023-06-26T03:55:23;13.07;;;10.38;;
53411;SDS011;39307;52.870;13.660;2023-06-26T03:57:50;11.85;;;9.75;;
53411;SDS011;39307;52.870;13.660;2023-06-26T04:00:16;12.65;;;9.52;;
53411;SDS011;39307;52.870;13.660;2023-06-26T04:02:42;11.82;;;9.05;;
53411;SDS011;39307;52.870;13.660;2023-06-26T04:05:08;12.77;;;9.35;;
53411;SDS011;39307;52.870;13.660;2023-06-26T04:07:35;10.65;;;8.80;;
53411;SDS011;39307;52.870;13.660;2023-06-26T04:10:02;11.93;;;9.77;;
53411;SDS011;39307;52.870;13.660;2023-06-26T04:12:29;12.30;;;9.45;;
53411;SDS011;39307;52.870;13.660;2023-06-26T04:14:55;12.20;;;9.70;;
53411;SDS011;39307;52.870;13.660;2023-06-26T04:17:21;10.98;;;9.00;;
53411;SDS011;39307;52.870;13.660;2023-06-26T04:19:48;11.80;;;9.30;;
53411;SDS011;39307;52.870;13.660;2023-06-26T04:22:14;11.88;;;8.93;;
53411;SDS011;39307;52.870;13.660;2023-06-26T04:24:40;11.80;;;8.95;;
53411;SDS011;39307;52.870;13.660;2023-06-26T04:27:06;11.82;;;9.35;;
53411;SDS011;39307;52.870;13.660;2023-06-26T04:29:33;10.60;;;8.60;;
53411;SDS011;39307;52.870;13.660;2023-06-26T04:31:59;12.73;;;10.20;;
53411;SDS011;39307;52.870;13.660;2023-06-26T04:34:26;13.35;;;9.80;;
53411;SDS011;39307;52.870;13.660;2023-06-26T04:36:53;12.27;;;10.07;;
53411;SDS011;39307;52.870;13.660;2023-06-26T04:39:19;13.43;;;9.60;;
53411;SDS011;39307;52.870;13.660;2023-06-26T04:41:46;13.02;;;9.60;;
53411;SDS011;39307;52.870;13.660;2023-06-26T04:44:12;13.35;;;9.70;;
53411;SDS011;39307;52.870;13.660;2023-06-26T04:46:38;13.98;;;9.75;;
53411;SDS011;39307;52.870;13.660;2023-06-26T04:49:04;13.52;;;10.13;;
53411;SDS011;39307;52.870;13.660;2023-06-26T04:51:30;12.15;;;9.95;;
53411;SDS011;39307;52.870;13.660;2023-06-26T04:53:57;13.02;;;10.00;;
53411;SDS011;39307;52.870;13.660;2023-06-26T04:56:23;12.63;;;9.40;;
53411;SDS011;39307;52.870;13.660;2023-06-26T04:58:49;13.13;;;10.05;;
53411;SDS011;39307;52.870;13.660;2023-06-26T05:01:15;14.43;;;10.10;;
53411;SDS011;39307;52.870;13.660;2023-06-26T05:03:42;13.77;;;9.93;;
53411;SDS011;39307;52.870;13.660;2023-06-26T05:06:08;11.55;;;9.30;;
53411;SDS011;39307;52.870;13.660;2023-06-26T05:08:34;13.57;;;9.75;;
53411;SDS011;39307;52.870;13.660;2023-06-26T05:11:00;11.83;;;8.70;;
53411;SDS011;39307;52.870;13.660;2023-06-26T05:13:26;12.13;;;8.80;;
53411;SDS011;39307;52.870;13.660;2023-06-26T05:15:52;11.40;;;8.50;;
53411;SDS011;39307;52.870;13.660;2023-06-26T05:18:19;11.63;;;8.70;;
53411;SDS011;39307;52.870;13.660;2023-06-26T05:20:45;12.70;;;9.30;;
53411;SDS011;39307;52.870;13.660;2023-06-26T05:23:12;11.10;;;9.18;;
53411;SDS011;39307;52.870;13.660;2023-06-26T05:25:38;12.73;;;8.90;;
53411;SDS011;39307;52.870;13.660;2023-06-26T05:28:06;12.25;;;9.80;;
53411;SDS011;39307;52.870;13.660;2023-06-26T05:30:33;12.32;;;9.77;;
53411;SDS011;39307;52.870;13.660;2023-06-26T05:32:59;13.25;;;9.75;;
53411;SDS011;39307;52.870;13.660;2023-06-26T05:35:26;12.93;;;9.70;;
53411;SDS011;39307;52.870;13.660;2023-06-26T05:37:55;12.30;;;9.73;;
53411;SDS011;39307;52.870;13.660;2023-06-26T05:40:22;13.27;;;9.43;;
53411;SDS011;39307;52.870;13.660;2023-06-26T05:42:48;13.45;;;10.30;;
53411;SDS011;39307;52.870;13.660;2023-06-26T05:45:15;12.82;;;10.63;;
53411;SDS011;39307;52.870;13.660;2023-06-26T05:47:41;13.48;;;10.70;;
53411;SDS011;39307;52.870;13.660;2023-06-26T05:50:08;13.38;;;10.40;;
53411;SDS011;39307;52.870;13.660;2023-06-26T05:52:35;14.07;;;10.98;;
53411;SDS011;39307;52.870;13.660;2023-06-26T05:55:05;12.82;;;10.63;;
53411;SDS011;39307;52.870;13.660;2023-06-26T05:57:32;15.32;;;10.93;;
53411;SDS011;39307;52.870;13.660;2023-06-26T06:00:00;15.98;;;11.63;;
53411;SDS011;39307;52.870;13.660;2023-06-26T06:02:26;15.98;;;11.77;;
53411;SDS011;39307;52.870;13.660;2023-06-26T06:04:53;13.48;;;10.65;;
53411;SDS011;39307;52.870;13.660;2023-06-26T06:07:19;15.77;;;11.68;;
53411;SDS011;39307;52.870;13.660;2023-06-26T06:09:45;14.05;;;10.65;;
53411;SDS011;39307;52.870;13.660;2023-06-26T06:12:11;12.68;;;10.02;;
53411;SDS011;39307;52.870;13.660;2023-06-26T06:14:37;12.20;;;10.40;;
53411;SDS011;39307;52.870;13.660;2023-06-26T06:17:04;13.52;;;10.55;;
53411;SDS011;39307;52.870;13.660;2023-06-26T06:19:30;12.75;;;10.88;;
53411;SDS011;39307;52.870;13.660;2023-06-26T06:21:56;13.82;;;11.15;;
53411;SDS011;39307;52.870;13.660;2023-06-26T06:24:22;14.25;;;11.05;;
53411;SDS011;39307;52.870;13.660;2023-06-26T06:26:48;14.63;;;10.77;;
53411;SDS011;39307;52.870;13.660;2023-06-26T06:29:15;14.55;;;10.82;;
53411;SDS011;39307;52.870;13.660;2023-06-26T06:31:41;15.10;;;11.25;;
53411;SDS011;39307;52.870;13.660;2023-06-26T06:34:07;13.32;;;10.75;;
53411;SDS011;39307;52.870;13.660;2023-06-26T06:36:34;13.43;;;10.65;;
53411;SDS011;39307;52.870;13.660;2023-06-26T06:39:00;15.18;;;10.10;;
53411;SDS011;39307;52.870;13.660;2023-06-26T06:41:26;14.77;;;11.38;;
53411;SDS011;39307;52.870;13.660;2023-06-26T06:43:53;18.53;;;13.60;;
53411;SDS011;39307;52.870;13.660;2023-06-26T06:46:19;16.07;;;12.40;;
53411;SDS011;39307;52.870;13.660;2023-06-26T06:48:45;13.63;;;12.07;;
53411;SDS011;39307;52.870;13.660;2023-06-26T06:51:12;13.65;;;11.35;;
53411;SDS011;39307;52.870;13.660;2023-06-26T06:53:38;13.70;;;11.07;;
53411;SDS011;39307;52.870;13.660;2023-06-26T06:56:04;14.68;;;10.38;;
53411;SDS011;39307;52.870;13.660;2023-06-26T06:58:31;12.18;;;9.65;;
53411;SDS011;39307;52.870;13.660;2023-06-26T07:00:57;16.10;;;12.45;;
53411;SDS011;39307;52.870;13.660;2023-06-26T07:03:23;11.18;;;9.55;;
53411;SDS011;39307;52.870;13.660;2023-06-26T07:05:49;96.63;;;74.13;;
53411;SDS011;39307;52.870;13.660;2023-06-26T07:08:16;101.70;;;79.03;;
53411;SDS011;39307;52.870;13.660;2023-06-26T07:10:42;25.52;;;19.23;;
53411;SDS011;39307;52.870;13.660;2023-06-26T07:13:08;17.45;;;14.50;;
53411;SDS011;39307;52.870;13.660;2023-06-26T07:15:34;16.92;;;13.15;;
53411;SDS011;39307;52.870;13.660;2023-06-26T07:18:01;13.27;;;10.48;;
53411;SDS011;39307;52.870;13.660;2023-06-26T07:20:27;12.25;;;9.70;;
53411;SDS011;39307;52.870;13.660;2023-06-26T07:22:53;13.33;;;9.57;;
53411;SDS011;39307;52.870;13.660;2023-06-26T07:25:19;11.03;;;8.17;;
53411;SDS011;39307;52.870;13.660;2023-06-26T07:27:45;11.50;;;8.53;;
53411;SDS011;39307;52.870;13.660;2023-06-26T07:30:12;18.97;;;12.93;;
53411;SDS011;39307;52.870;13.660;2023-06-26T07:32:38;14.57;;;10.68;;
53411;SDS011;39307;52.870;13.660;2023-06-26T07:35:04;10.98;;;8.52;;
53411;SDS011;39307;52.870;13.660;2023-06-26T07:37:30;9.73;;;7.30;;
53411;SDS011;39307;52.870;13.660;2023-06-26T07:39:57;10.77;;;7.63;;
53411;SDS011;39307;52.870;13.660;2023-06-26T07:42:23;10.47;;;7.40;;
53411;SDS011;39307;52.870;13.660;2023-06-26T07:44:49;10.50;;;7.45;;
53411;SDS011;39307;52.870;13.660;2023-06-26T07:47:15;8.45;;;6.45;;
53411;SDS011;39307;52.870;13.660;2023-06-26T07:49:42;9.50;;;6.63;;
53411;SDS011;39307;52.870;13.660;2023-06-26T07:52:08;8.35;;;5.90;;
53411;SDS011;39307;52.870;13.660;2023-06-26T07:54:34;8.52;;;5.38;;
53411;SDS011;39307;52.870;13.660;2023-06-26T07:57:01;11.02;;;5.75;;
53411;SDS011;39307;52.870;13.660;2023-06-26T07:59:29;8.43;;;5.93;;
53411;SDS011;39307;52.870;13.660;2023-06-26T08:01:56;8.05;;;5.47;;
53411;SDS011;39307;52.870;13.660;2023-06-26T08:04:26;7.68;;;5.03;;
53411;SDS011;39307;52.870;13.660;2023-06-26T08:06:54;9.63;;;5.07;;
53411;SDS011;39307;52.870;13.660;2023-06-26T08:09:23;11.65;;;6.05;;
53411;SDS011;39307;52.870;13.660;2023-06-26T08:11:50;7.95;;;5.20;;
53411;SDS011;39307;52.870;13.660;2023-06-26T08:14:17;10.90;;;5.90;;
53411;SDS011;39307;52.870;13.660;2023-06-26T08:16:43;14.50;;;6.38;;
53411;SDS011;39307;52.870;13.660;2023-06-26T08:19:11;7.63;;;5.10;;
53411;SDS011;39307;52.870;13.660;2023-06-26T08:21:38;6.97;;;4.50;;
53411;SDS011;39307;52.870;13.660;2023-06-26T08:24:04;7.43;;;4.32;;
53411;SDS011;39307;52.870;13.660;2023-06-26T08:26:30;7.38;;;4.43;;
53411;SDS011;39307;52.870;13.660;2023-06-26T08:28:56;6.17;;;4.27;;
53411;SDS011;39307;52.870;13.660;2023-06-26T08:31:23;7.68;;;4.55;;
53411;SDS011;39307;52.870;13.660;2023-06-26T08:33:49;6.53;;;4.40;;
53411;SDS011;39307;52.870;13.660;2023-06-26T08:36:15;6.80;;;4.32;;
53411;SDS011;39307;52.870;13.660;2023-06-26T08:38:41;6.03;;;4.10;;
53411;SDS011;39307;52.870;13.660;2023-06-26T08:41:08;6.15;;;4.43;;
53411;SDS011;39307;52.870;13.660;2023-06-26T08:43:35;8.10;;;4.50;;
53411;SDS011;39307;52.870;13.660;2023-06-26T08:46:02;6.60;;;4.10;;
53411;SDS011;39307;52.870;13.660;2023-06-26T08:48:31;6.22;;;3.88;;
53411;SDS011;39307;52.870;13.660;2023-06-26T08:50:58;6.65;;;4.03;;
53411;SDS011;39307;52.870;13.660;2023-06-26T08:53:37;6.38;;;4.10;;
53411;SDS011;39307;52.870;13.660;2023-06-26T08:56:13;5.78;;;3.80;;
53411;SDS011;39307;52.870;13.660;2023-06-26T08:58:42;5.22;;;3.42;;
53411;SDS011;39307;52.870;13.660;2023-06-26T09:01:10;7.40;;;3.83;;
53411;SDS011;39307;52.870;13.660;2023-06-26T09:03:37;6.37;;;4.10;;
53411;SDS011;39307;52.870;13.660;2023-06-26T09:06:03;8.75;;;3.70;;
53411;SDS011;39307;52.870;13.660;2023-06-26T09:08:29;6.93;;;4.07;;
53411;SDS011;39307;52.870;13.660;2023-06-26T09:10:56;9.35;;;3.75;;
53411;SDS011;39307;52.870;13.660;2023-06-26T09:13:21;5.80;;;3.90;;
53411;SDS011;39307;52.870;13.660;2023-06-26T09:15:48;6.10;;;3.60;;
53411;SDS011;39307;52.870;13.660;2023-06-26T09:18:16;5.25;;;3.60;;
53411;SDS011;39307;52.870;13.660;2023-06-26T09:20:44;5.43;;;3.40;;
53411;SDS011;39307;52.870;13.660;2023-06-26T09:23:11;5.65;;;3.10;;
53411;SDS011;39307;52.870;13.660;2023-06-26T09:25:39;5.43;;;3.60;;
53411;SDS011;39307;52.870;13.660;2023-06-26T09:28:06;5.82;;;3.35;;
53411;SDS011;39307;52.870;13.660;2023-06-26T09:30:34;6.60;;;3.67;;
53411;SDS011;39307;52.870;13.660;2023-06-26T09:33:14;6.93;;;3.70;;
53411;SDS011;39307;52.870;13.660;2023-06-26T09:35:42;6.10;;;3.57;;
53411;SDS011;39307;52.870;13.660;2023-06-26T09:38:13;6.18;;;3.35;;
53411;SDS011;39307;52.870;13.660;2023-06-26T09:40:40;6.53;;;3.95;;
53411;SDS011;39307;52.870;13.660;2023-06-26T09:43:07;6.30;;;3.72;;
53411;SDS011;39307;52.870;13.660;2023-06-26T09:45:33;5.13;;;3.60;;
53411;SDS011;39307;52.870;13.660;2023-06-26T09:48:01;6.00;;;3.83;;
53411;SDS011;39307;52.870;13.660;2023-06-26T09:50:28;6.28;;;3.90;;
53411;SDS011;39307;52.870;13.660;2023-06-26T09:52:55;5.07;;;3.30;;
53411;SDS011;39307;52.870;13.660;2023-06-26T09:55:21;7.00;;;3.70;;
53411;SDS011;39307;52.870;13.660;2023-06-26T09:57:49;6.10;;;3.70;;
53411;SDS011;39307;52.870;13.660;2023-06-26T10:00:17;5.97;;;3.60;;
53411;SDS011;39307;52.870;13.660;2023-06-26T10:02:44;5.60;;;3.58;;
53411;SDS011;39307;52.870;13.660;2023-06-26T10:05:10;6.53;;;3.85;;
53411;SDS011;39307;52.870;13.660;2023-06-26T10:07:37;6.72;;;3.63;;
53411;SDS011;39307;52.870;13.660;2023-06-26T10:10:04;5.68;;;3.65;;
53411;SDS011;39307;52.870;13.660;2023-06-26T10:12:32;5.95;;;3.47;;
53411;SDS011;39307;52.870;13.660;2023-06-26T10:14:58;6.30;;;3.40;;
53411;SDS011;39307;52.870;13.660;2023-06-26T10:17:34;6.32;;;3.53;;
53411;SDS011;39307;52.870;13.660;2023-06-26T10:20:03;5.00;;;3.05;;
53411;SDS011;39307;52.870;13.660;2023-06-26T10:22:33;5.75;;;3.42;;
53411;SDS011;39307;52.870;13.660;2023-06-26T10:25:06;5.70;;;3.30;;
53411;SDS011;39307;52.870;13.660;2023-06-26T10:27:35;5.25;;;3.58;;
53411;SDS011;39307;52.870;13.660;2023-06-26T10:30:09;5.50;;;3.67;;
53411;SDS011;39307;52.870;13.660;2023-06-26T10:32:39;7.10;;;3.63;;
53411;SDS011;39307;52.870;13.660;2023-06-26T10:35:06;5.85;;;3.50;;
53411;SDS011;39307;52.870;13.660;2023-06-26T10:37:43;5.03;;;3.25;;
53411;SDS011;39307;52.870;13.660;2023-06-26T10:40:09;6.20;;;3.40;;
53411;SDS011;39307;52.870;13.660;2023-06-26T10:42:37;4.55;;;3.20;;
53411;SDS011;39307;52.870;13.660;2023-06-26T10:45:14;5.43;;;3.65;;
53411;SDS011;39307;52.870;13.660;2023-06-26T10:47:47;5.28;;;3.28;;
53411;SDS011;39307;52.870;13.660;2023-06-26T10:50:23;6.13;;;3.70;;
53411;SDS011;39307;52.870;13.660;2023-06-26T10:55:48;5.32;;;3.60;;
53411;SDS011;39307;52.870;13.660;2023-06-26T11:01:20;5.28;;;3.47;;
53411;SDS011;39307;52.870;13.660;2023-06-26T11:06:29;5.60;;;3.28;;
53411;SDS011;39307;52.870;13.660;2023-06-26T11:09:00;5.55;;;3.20;;
53411;SDS011;39307;52.870;13.660;2023-06-26T11:12:15;5.80;;;3.60;;
53411;SDS011;39307;52.870;13.660;2023-06-26T11:14:19;5.25;;;3.10;;
53411;SDS011;39307;52.870;13.660;2023-06-26T11:16:50;5.88;;;3.22;;
53411;SDS011;39307;52.870;13.660;2023-06-26T11:19:17;6.25;;;3.20;;
53411;SDS011;39307;52.870;13.660;2023-06-26T11:21:44;5.80;;;3.35;;
53411;SDS011;39307;52.870;13.660;2023-06-26T11:24:11;6.95;;;3.22;;
53411;SDS011;39307;52.870;13.660;2023-06-26T11:26:42;4.97;;;3.30;;
53411;SDS011;39307;52.870;13.660;2023-06-26T11:29:10;7.93;;;3.40;;
53411;SDS011;39307;52.870;13.660;2023-06-26T11:31:37;5.47;;;3.20;;
53411;SDS011;39307;52.870;13.660;2023-06-26T11:34:06;5.57;;;3.13;;
53411;SDS011;39307;52.870;13.660;2023-06-26T11:36:33;5.57;;;3.30;;
53411;SDS011;39307;52.870;13.660;2023-06-26T11:39:00;4.90;;;3.20;;
53411;SDS011;39307;52.870;13.660;2023-06-26T11:41:28;5.82;;;3.17;;
53411;SDS011;39307;52.870;13.660;2023-06-26T11:43:59;5.85;;;3.42;;
53411;SDS011;39307;52.870;13.660;2023-06-26T11:46:30;4.90;;;3.30;;
53411;SDS011;39307;52.870;13.660;2023-06-26T11:48:56;5.33;;;3.20;;
53411;SDS011;39307;52.870;13.660;2023-06-26T11:51:23;6.15;;;3.28;;
53411;SDS011;39307;52.870;13.660;2023-06-26T11:53:49;5.30;;;3.28;;
53411;SDS011;39307;52.870;13.660;2023-06-26T11:56:15;5.28;;;3.30;;
53411;SDS011;39307;52.870;13.660;2023-06-26T12:01:34;5.55;;;3.15;;
53411;SDS011;39307;52.870;13.660;2023-06-26T12:04:06;6.50;;;3.50;;
53411;SDS011;39307;52.870;13.660;2023-06-26T12:06:35;5.18;;;3.20;;
53411;SDS011;39307;52.870;13.660;2023-06-26T12:09:12;7.53;;;3.35;;
53411;SDS011;39307;52.870;13.660;2023-06-26T12:11:40;5.82;;;3.40;;
53411;SDS011;39307;52.870;13.660;2023-06-26T12:14:07;5.00;;;3.30;;
53411;SDS011;39307;52.870;13.660;2023-06-26T12:16:34;5.07;;;3.03;;
53411;SDS011;39307;52.870;13.660;2023-06-26T12:19:02;5.75;;;3.58;;
53411;SDS011;39307;52.870;13.660;2023-06-26T12:24:05;7.07;;;3.15;;
53411;SDS011;39307;52.870;13.660;2023-06-26T12:26:41;4.88;;;3.10;;
53411;SDS011;39307;52.870;13.660;2023-06-26T12:29:09;5.70;;;3.25;;
53411;SDS011;39307;52.870;13.660;2023-06-26T12:31:39;5.32;;;3.50;;
53411;SDS011;39307;52.870;13.660;2023-06-26T12:34:10;6.78;;;3.50;;
53411;SDS011;39307;52.870;13.660;2023-06-26T12:36:40;5.80;;;3.13;;
53411;SDS011;39307;52.870;13.660;2023-06-26T12:39:12;4.57;;;3.38;;
53411;SDS011;39307;52.870;13.660;2023-06-26T12:41:48;5.60;;;3.45;;
53411;SDS011;39307;52.870;13.660;2023-06-26T12:44:18;8.00;;;3.58;;
53411;SDS011;39307;52.870;13.660;2023-06-26T12:46:45;6.15;;;3.83;;
53411;SDS011;39307;52.870;13.660;2023-06-26T12:49:12;5.55;;;3.70;;
53411;SDS011;39307;52.870;13.660;2023-06-26T12:51:38;5.68;;;3.28;;
53411;SDS011;39307;52.870;13.660;2023-06-26T12:54:04;6.20;;;3.60;;
53411;SDS011;39307;52.870;13.660;2023-06-26T12:56:30;5.07;;;3.33;;
53411;SDS011;39307;52.870;13.660;2023-06-26T12:58:57;7.97;;;3.10;;
53411;SDS011;39307;52.870;13.660;2023-06-26T13:01:24;4.88;;;3.30;;
53411;SDS011;39307;52.870;13.660;2023-06-26T13:03:50;6.10;;;3.55;;
53411;SDS011;39307;52.870;13.660;2023-06-26T13:06:16;5.38;;;3.33;;
53411;SDS011;39307;52.870;13.660;2023-06-26T13:08:42;6.03;;;3.70;;
53411;SDS011;39307;52.870;13.660;2023-06-26T13:11:09;6.32;;;3.80;;
53411;SDS011;39307;52.870;13.660;2023-06-26T13:13:35;6.13;;;3.50;;
53411;SDS011;39307;52.870;13.660;2023-06-26T13:16:01;6.00;;;3.80;;
53411;SDS011;39307;52.870;13.660;2023-06-26T13:18:27;5.50;;;3.75;;
53411;SDS011;39307;52.870;13.660;2023-06-26T13:20:54;5.27;;;3.60;;
53411;SDS011;39307;52.870;13.660;2023-06-26T13:23:20;5.40;;;3.42;;
53411;SDS011;39307;52.870;13.660;2023-06-26T13:25:46;6.70;;;3.70;;
53411;SDS011;39307;52.870;13.660;2023-06-26T13:28:13;5.38;;;3.55;;
53411;SDS011;39307;52.870;13.660;2023-06-26T13:30:39;4.68;;;3.05;;
53411;SDS011;39307;52.870;13.660;2023-06-26T13:33:05;5.13;;;3.55;;
53411;SDS011;39307;52.870;13.660;2023-06-26T13:35:31;7.43;;;3.63;;
53411;SDS011;39307;52.870;13.660;2023-06-26T13:37:57;5.37;;;3.53;;
53411;SDS011;39307;52.870;13.660;2023-06-26T13:40:23;5.85;;;3.10;;
53411;SDS011;39307;52.870;13.660;2023-06-26T13:42:50;5.25;;;3.45;;
53411;SDS011;39307;52.870;13.660;2023-06-26T13:45:16;7.03;;;3.95;;
53411;SDS011;39307;52.870;13.660;2023-06-26T13:47:42;6.63;;;3.55;;
53411;SDS011;39307;52.870;13.660;2023-06-26T13:50:09;6.88;;;3.63;;
53411;SDS011;39307;52.870;13.660;2023-06-26T13:52:36;6.47;;;4.38;;
53411;SDS011;39307;52.870;13.660;2023-06-26T13:55:02;5.82;;;3.70;;
53411;SDS011;39307;52.870;13.660;2023-06-26T13:57:29;7.03;;;3.83;;
53411;SDS011;39307;52.870;13.660;2023-06-26T13:59:55;5.90;;;3.75;;
53411;SDS011;39307;52.870;13.660;2023-06-26T14:02:21;7.50;;;4.03;;
53411;SDS011;39307;52.870;13.660;2023-06-26T14:04:48;6.88;;;3.72;;
53411;SDS011;39307;52.870;13.660;2023-06-26T14:07:14;6.10;;;3.97;;
53411;SDS011;39307;52.870;13.660;2023-06-26T14:09:40;6.15;;;4.03;;
53411;SDS011;39307;52.870;13.660;2023-06-26T14:12:07;7.13;;;3.90;;
53411;SDS011;39307;52.870;13.660;2023-06-26T14:14:33;6.78;;;4.07;;
53411;SDS011;39307;52.870;13.660;2023-06-26T14:16:59;6.80;;;4.13;;
53411;SDS011;39307;52.870;13.660;2023-06-26T14:19:25;7.23;;;3.97;;
53411;SDS011;39307;52.870;13.660;2023-06-26T14:21:52;6.40;;;3.90;;
53411;SDS011;39307;52.870;13.660;2023-06-26T14:24:18;5.72;;;3.67;;
53411;SDS011;39307;52.870;13.660;2023-06-26T14:26:44;6.57;;;4.05;;
53411;SDS011;39307;52.870;13.660;2023-06-26T14:29:10;8.35;;;4.18;;
53411;SDS011;39307;52.870;13.660;2023-06-26T14:31:36;6.53;;;3.95;;
53411;SDS011;39307;52.870;13.660;2023-06-26T14:34:02;18.17;;;3.95;;
53411;SDS011;39307;52.870;13.660;2023-06-26T14:36:28;11.47;;;3.73;;
53411;SDS011;39307;52.870;13.660;2023-06-26T14:38:54;8.70;;;3.53;;
53411;SDS011;39307;52.870;13.660;2023-06-26T14:41:21;9.13;;;3.50;;
53411;SDS011;39307;52.870;13.660;2023-06-26T14:43:47;9.32;;;3.80;;